Terminal Aerodrome Forecast
Issued by NWS Wilmington, NC

Home | Current Version | Previous Version | Text Only | Print | Product List | Glossary On
Versions: 1 2 3 4 5 6 7 8 9 10 11 12 13 14
994
FTUS42 KILM 180532 CCA
TAFFLO
TAF COR
KFLO 180532Z 1806/1906 00000KT P6SM OVC035
     FM180800 VRB06KT P6SM OVC020
     FM181700 25006KT P6SM BKN025=

USA.gov is the U.S. government's official web portal to all federal, state and local government web resources and services.